sensor_id;sensor_type;location;lat;lon;timestamp;P1;durP1;ratioP1;P2;durP2;ratioP2
22005;SDS011;11167;46.988;15.470;2022-07-29T00:00:35;4.03;;;2.98;;
22005;SDS011;11167;46.988;15.470;2022-07-29T00:02:36;3.47;;;2.70;;
22005;SDS011;11167;46.988;15.470;2022-07-29T00:04:38;3.22;;;2.70;;
22005;SDS011;11167;46.988;15.470;2022-07-29T00:06:39;3.17;;;2.87;;
22005;SDS011;11167;46.988;15.470;2022-07-29T00:08:41;3.85;;;2.70;;
22005;SDS011;11167;46.988;15.470;2022-07-29T00:10:43;3.17;;;2.72;;
22005;SDS011;11167;46.988;15.470;2022-07-29T00:12:44;3.50;;;3.20;;
22005;SDS011;11167;46.988;15.470;2022-07-29T00:14:45;2.62;;;2.42;;
22005;SDS011;11167;46.988;15.470;2022-07-29T00:16:46;4.00;;;2.70;;
22005;SDS011;11167;46.988;15.470;2022-07-29T00:18:47;3.25;;;2.80;;
22005;SDS011;11167;46.988;15.470;2022-07-29T00:20:48;3.12;;;2.67;;
22005;SDS011;11167;46.988;15.470;2022-07-29T00:22:50;3.35;;;2.50;;
22005;SDS011;11167;46.988;15.470;2022-07-29T00:24:51;3.35;;;2.70;;
22005;SDS011;11167;46.988;15.470;2022-07-29T00:26:52;3.20;;;2.90;;
22005;SDS011;11167;46.988;15.470;2022-07-29T00:28:53;3.12;;;2.80;;
22005;SDS011;11167;46.988;15.470;2022-07-29T00:30:54;3.50;;;2.77;;
22005;SDS011;11167;46.988;15.470;2022-07-29T00:32:55;5.55;;;2.72;;
22005;SDS011;11167;46.988;15.470;2022-07-29T00:34:56;3.37;;;2.60;;
22005;SDS011;11167;46.988;15.470;2022-07-29T00:37:16;3.05;;;2.75;;
22005;SDS011;11167;46.988;15.470;2022-07-29T00:39:19;5.28;;;2.40;;
22005;SDS011;11167;46.988;15.470;2022-07-29T00:41:41;3.10;;;2.80;;
22005;SDS011;11167;46.988;15.470;2022-07-29T00:43:43;3.02;;;2.80;;
22005;SDS011;11167;46.988;15.470;2022-07-29T00:45:45;3.08;;;2.77;;
22005;SDS011;11167;46.988;15.470;2022-07-29T00:47:46;3.27;;;2.75;;
22005;SDS011;11167;46.988;15.470;2022-07-29T00:49:47;2.83;;;2.60;;
22005;SDS011;11167;46.988;15.470;2022-07-29T00:51:49;3.27;;;2.42;;
22005;SDS011;11167;46.988;15.470;2022-07-29T00:53:50;2.80;;;2.60;;
22005;SDS011;11167;46.988;15.470;2022-07-29T00:55:53;2.60;;;2.40;;
22005;SDS011;11167;46.988;15.470;2022-07-29T00:57:55;3.37;;;2.70;;
22005;SDS011;11167;46.988;15.470;2022-07-29T00:59:58;3.85;;;2.90;;
22005;SDS011;11167;46.988;15.470;2022-07-29T01:02:00;3.42;;;2.70;;
22005;SDS011;11167;46.988;15.470;2022-07-29T01:04:01;2.72;;;2.52;;
22005;SDS011;11167;46.988;15.470;2022-07-29T01:06:02;2.65;;;2.45;;
22005;SDS011;11167;46.988;15.470;2022-07-29T01:08:04;2.80;;;2.60;;
22005;SDS011;11167;46.988;15.470;2022-07-29T01:10:06;2.67;;;2.47;;
22005;SDS011;11167;46.988;15.470;2022-07-29T01:12:09;3.17;;;2.87;;
22005;SDS011;11167;46.988;15.470;2022-07-29T01:14:11;3.60;;;2.83;;
22005;SDS011;11167;46.988;15.470;2022-07-29T01:16:15;2.70;;;2.47;;
22005;SDS011;11167;46.988;15.470;2022-07-29T01:18:19;3.27;;;2.98;;
22005;SDS011;11167;46.988;15.470;2022-07-29T01:23:07;3.00;;;2.70;;
22005;SDS011;11167;46.988;15.470;2022-07-29T01:30:21;3.15;;;2.85;;
22005;SDS011;11167;46.988;15.470;2022-07-29T01:32:29;2.70;;;2.50;;
22005;SDS011;11167;46.988;15.470;2022-07-29T01:34:48;3.35;;;2.72;;
22005;SDS011;11167;46.988;15.470;2022-07-29T01:37:01;2.70;;;2.50;;
22005;SDS011;11167;46.988;15.470;2022-07-29T01:39:11;2.55;;;2.35;;
22005;SDS011;11167;46.988;15.470;2022-07-29T01:41:12;2.75;;;2.55;;
22005;SDS011;11167;46.988;15.470;2022-07-29T01:43:16;2.80;;;2.60;;
22005;SDS011;11167;46.988;15.470;2022-07-29T01:45:21;3.47;;;2.62;;
22005;SDS011;11167;46.988;15.470;2022-07-29T01:49:59;2.65;;;2.45;;
22005;SDS011;11167;46.988;15.470;2022-07-29T01:52:05;3.10;;;2.80;;
22005;SDS011;11167;46.988;15.470;2022-07-29T01:54:08;3.37;;;2.60;;
22005;SDS011;11167;46.988;15.470;2022-07-29T01:56:13;2.75;;;2.30;;
22005;SDS011;11167;46.988;15.470;2022-07-29T02:00:18;2.72;;;2.52;;
22005;SDS011;11167;46.988;15.470;2022-07-29T02:02:20;2.60;;;2.40;;
22005;SDS011;11167;46.988;15.470;2022-07-29T02:04:23;2.72;;;2.40;;
22005;SDS011;11167;46.988;15.470;2022-07-29T02:06:26;2.60;;;2.40;;
22005;SDS011;11167;46.988;15.470;2022-07-29T02:08:30;3.10;;;2.80;;
22005;SDS011;11167;46.988;15.470;2022-07-29T02:10:33;2.73;;;2.53;;
22005;SDS011;11167;46.988;15.470;2022-07-29T02:12:36;3.12;;;2.83;;
22005;SDS011;11167;46.988;15.470;2022-07-29T02:14:40;2.50;;;2.30;;
22005;SDS011;11167;46.988;15.470;2022-07-29T02:16:44;3.42;;;2.83;;
22005;SDS011;11167;46.988;15.470;2022-07-29T02:18:47;3.95;;;2.52;;
22005;SDS011;11167;46.988;15.470;2022-07-29T02:20:52;2.77;;;2.50;;
22005;SDS011;11167;46.988;15.470;2022-07-29T02:22:55;3.37;;;2.50;;
22005;SDS011;11167;46.988;15.470;2022-07-29T02:25:01;3.10;;;2.77;;
22005;SDS011;11167;46.988;15.470;2022-07-29T02:27:23;3.83;;;2.65;;
22005;SDS011;11167;46.988;15.470;2022-07-29T02:29:26;2.80;;;2.60;;
22005;SDS011;11167;46.988;15.470;2022-07-29T02:31:31;2.98;;;2.60;;
22005;SDS011;11167;46.988;15.470;2022-07-29T02:33:34;2.98;;;2.58;;
22005;SDS011;11167;46.988;15.470;2022-07-29T02:35:36;2.62;;;2.42;;
22005;SDS011;11167;46.988;15.470;2022-07-29T02:37:39;2.62;;;2.42;;
22005;SDS011;11167;46.988;15.470;2022-07-29T02:39:42;3.92;;;2.55;;
22005;SDS011;11167;46.988;15.470;2022-07-29T02:43:48;2.77;;;2.58;;
22005;SDS011;11167;46.988;15.470;2022-07-29T02:45:52;3.35;;;2.87;;
22005;SDS011;11167;46.988;15.470;2022-07-29T02:47:55;2.70;;;2.50;;
22005;SDS011;11167;46.988;15.470;2022-07-29T02:52:17;3.95;;;3.15;;
22005;SDS011;11167;46.988;15.470;2022-07-29T02:54:45;3.05;;;2.58;;
22005;SDS011;11167;46.988;15.470;2022-07-29T02:56:42;3.50;;;2.80;;
22005;SDS011;11167;46.988;15.470;2022-07-29T02:58:49;3.10;;;2.80;;
22005;SDS011;11167;46.988;15.470;2022-07-29T03:00:53;2.67;;;2.45;;
22005;SDS011;11167;46.988;15.470;2022-07-29T03:05:00;2.85;;;2.55;;
22005;SDS011;11167;46.988;15.470;2022-07-29T03:07:03;3.37;;;2.50;;
22005;SDS011;11167;46.988;15.470;2022-07-29T03:09:06;2.87;;;2.50;;
22005;SDS011;11167;46.988;15.470;2022-07-29T03:11:08;3.00;;;2.70;;
22005;SDS011;11167;46.988;15.470;2022-07-29T03:13:10;4.20;;;2.70;;
22005;SDS011;11167;46.988;15.470;2022-07-29T03:15:13;3.47;;;2.40;;
22005;SDS011;11167;46.988;15.470;2022-07-29T03:17:15;2.70;;;2.27;;
22005;SDS011;11167;46.988;15.470;2022-07-29T03:19:17;3.25;;;2.58;;
22005;SDS011;11167;46.988;15.470;2022-07-29T03:21:19;2.80;;;2.60;;
22005;SDS011;11167;46.988;15.470;2022-07-29T03:23:21;2.70;;;2.50;;
22005;SDS011;11167;46.988;15.470;2022-07-29T03:25:24;3.05;;;2.40;;
22005;SDS011;11167;46.988;15.470;2022-07-29T03:27:27;2.83;;;2.53;;
22005;SDS011;11167;46.988;15.470;2022-07-29T03:29:28;3.83;;;2.50;;
22005;SDS011;11167;46.988;15.470;2022-07-29T03:31:30;4.10;;;2.33;;
22005;SDS011;11167;46.988;15.470;2022-07-29T03:33:31;2.72;;;2.52;;
22005;SDS011;11167;46.988;15.470;2022-07-29T03:35:32;2.92;;;2.62;;
22005;SDS011;11167;46.988;15.470;2022-07-29T03:37:33;2.75;;;2.50;;
22005;SDS011;11167;46.988;15.470;2022-07-29T03:39:38;2.63;;;2.43;;
22005;SDS011;11167;46.988;15.470;2022-07-29T03:41:41;2.60;;;2.40;;
22005;SDS011;11167;46.988;15.470;2022-07-29T03:43:45;2.67;;;2.47;;
22005;SDS011;11167;46.988;15.470;2022-07-29T03:45:49;2.60;;;2.40;;
22005;SDS011;11167;46.988;15.470;2022-07-29T03:47:53;2.77;;;2.58;;
22005;SDS011;11167;46.988;15.470;2022-07-29T03:49:59;2.42;;;2.22;;
22005;SDS011;11167;46.988;15.470;2022-07-29T03:52:02;4.17;;;2.55;;
22005;SDS011;11167;46.988;15.470;2022-07-29T03:54:04;3.00;;;2.70;;
22005;SDS011;11167;46.988;15.470;2022-07-29T03:56:06;2.70;;;2.50;;
22005;SDS011;11167;46.988;15.470;2022-07-29T03:58:09;3.55;;;2.77;;
22005;SDS011;11167;46.988;15.470;2022-07-29T04:00:13;2.92;;;2.52;;
22005;SDS011;11167;46.988;15.470;2022-07-29T04:02:16;2.60;;;2.40;;
22005;SDS011;11167;46.988;15.470;2022-07-29T04:04:17;3.52;;;2.33;;
22005;SDS011;11167;46.988;15.470;2022-07-29T04:06:19;4.50;;;2.60;;
22005;SDS011;11167;46.988;15.470;2022-07-29T04:08:20;2.67;;;2.25;;
22005;SDS011;11167;46.988;15.470;2022-07-29T04:10:21;2.50;;;2.30;;
22005;SDS011;11167;46.988;15.470;2022-07-29T04:12:23;2.95;;;2.40;;
22005;SDS011;11167;46.988;15.470;2022-07-29T04:14:24;2.80;;;2.60;;
22005;SDS011;11167;46.988;15.470;2022-07-29T04:16:26;2.65;;;2.45;;
22005;SDS011;11167;46.988;15.470;2022-07-29T04:18:27;2.70;;;2.50;;
22005;SDS011;11167;46.988;15.470;2022-07-29T04:20:28;3.05;;;2.50;;
22005;SDS011;11167;46.988;15.470;2022-07-29T04:22:30;2.70;;;2.50;;
22005;SDS011;11167;46.988;15.470;2022-07-29T04:24:31;2.60;;;2.35;;
22005;SDS011;11167;46.988;15.470;2022-07-29T04:26:32;3.10;;;2.77;;
22005;SDS011;11167;46.988;15.470;2022-07-29T04:28:34;2.67;;;2.47;;
22005;SDS011;11167;46.988;15.470;2022-07-29T04:30:35;2.70;;;2.50;;
22005;SDS011;11167;46.988;15.470;2022-07-29T04:32:37;2.50;;;2.20;;
22005;SDS011;11167;46.988;15.470;2022-07-29T04:34:38;2.95;;;2.75;;
22005;SDS011;11167;46.988;15.470;2022-07-29T04:36:39;2.55;;;2.35;;
22005;SDS011;11167;46.988;15.470;2022-07-29T04:38:41;3.35;;;2.47;;
22005;SDS011;11167;46.988;15.470;2022-07-29T04:40:42;2.87;;;2.65;;
22005;SDS011;11167;46.988;15.470;2022-07-29T04:42:43;4.10;;;2.67;;
22005;SDS011;11167;46.988;15.470;2022-07-29T04:44:44;3.42;;;2.85;;
22005;SDS011;11167;46.988;15.470;2022-07-29T04:46:45;3.27;;;2.40;;
22005;SDS011;11167;46.988;15.470;2022-07-29T04:48:46;2.58;;;2.37;;
22005;SDS011;11167;46.988;15.470;2022-07-29T04:50:48;2.62;;;2.42;;
22005;SDS011;11167;46.988;15.470;2022-07-29T04:52:49;3.85;;;2.83;;
22005;SDS011;11167;46.988;15.470;2022-07-29T04:54:50;2.52;;;2.33;;
22005;SDS011;11167;46.988;15.470;2022-07-29T04:56:51;2.60;;;2.40;;
22005;SDS011;11167;46.988;15.470;2022-07-29T04:58:53;3.33;;;2.70;;
22005;SDS011;11167;46.988;15.470;2022-07-29T05:00:54;3.27;;;2.75;;
22005;SDS011;11167;46.988;15.470;2022-07-29T05:02:55;3.00;;;2.70;;
22005;SDS011;11167;46.988;15.470;2022-07-29T05:04:56;2.70;;;2.50;;
22005;SDS011;11167;46.988;15.470;2022-07-29T05:06:57;2.65;;;2.15;;
22005;SDS011;11167;46.988;15.470;2022-07-29T05:08:58;3.00;;;2.62;;
22005;SDS011;11167;46.988;15.470;2022-07-29T05:11:00;3.02;;;2.70;;
22005;SDS011;11167;46.988;15.470;2022-07-29T05:13:01;2.95;;;2.65;;
22005;SDS011;11167;46.988;15.470;2022-07-29T05:15:02;2.77;;;2.47;;
22005;SDS011;11167;46.988;15.470;2022-07-29T05:17:04;2.72;;;2.52;;
22005;SDS011;11167;46.988;15.470;2022-07-29T05:19:05;3.27;;;2.42;;
22005;SDS011;11167;46.988;15.470;2022-07-29T05:21:06;3.25;;;2.72;;
22005;SDS011;11167;46.988;15.470;2022-07-29T05:23:07;2.98;;;2.40;;
22005;SDS011;11167;46.988;15.470;2022-07-29T05:25:09;2.95;;;2.65;;
22005;SDS011;11167;46.988;15.470;2022-07-29T05:27:10;2.70;;;2.50;;
22005;SDS011;11167;46.988;15.470;2022-07-29T05:29:11;4.30;;;2.60;;
22005;SDS011;11167;46.988;15.470;2022-07-29T05:31:12;3.35;;;2.90;;
22005;SDS011;11167;46.988;15.470;2022-07-29T05:33:15;3.15;;;2.80;;
22005;SDS011;11167;46.988;15.470;2022-07-29T05:35:16;3.50;;;2.90;;
22005;SDS011;11167;46.988;15.470;2022-07-29T05:37:20;3.05;;;2.75;;
22005;SDS011;11167;46.988;15.470;2022-07-29T05:39:21;3.67;;;3.33;;
22005;SDS011;11167;46.988;15.470;2022-07-29T05:41:23;3.27;;;2.98;;
22005;SDS011;11167;46.988;15.470;2022-07-29T05:43:24;3.55;;;3.08;;
22005;SDS011;11167;46.988;15.470;2022-07-29T05:45:26;3.17;;;2.87;;
22005;SDS011;11167;46.988;15.470;2022-07-29T05:47:27;3.37;;;3.05;;
22005;SDS011;11167;46.988;15.470;2022-07-29T05:49:29;4.33;;;3.30;;
22005;SDS011;11167;46.988;15.470;2022-07-29T05:51:30;3.60;;;3.30;;
22005;SDS011;11167;46.988;15.470;2022-07-29T05:53:31;3.12;;;2.85;;
22005;SDS011;11167;46.988;15.470;2022-07-29T05:55:33;3.60;;;3.30;;
22005;SDS011;11167;46.988;15.470;2022-07-29T05:57:34;4.53;;;3.45;;
22005;SDS011;11167;46.988;15.470;2022-07-29T05:59:35;3.35;;;3.05;;
22005;SDS011;11167;46.988;15.470;2022-07-29T06:01:37;3.50;;;3.20;;
22005;SDS011;11167;46.988;15.470;2022-07-29T06:03:39;3.80;;;3.50;;
22005;SDS011;11167;46.988;15.470;2022-07-29T06:05:41;4.47;;;2.90;;
22005;SDS011;11167;46.988;15.470;2022-07-29T06:07:43;3.87;;;3.20;;
22005;SDS011;11167;46.988;15.470;2022-07-29T06:09:44;3.42;;;3.12;;
22005;SDS011;11167;46.988;15.470;2022-07-29T06:11:45;3.25;;;2.95;;
22005;SDS011;11167;46.988;15.470;2022-07-29T06:13:46;3.85;;;3.45;;
22005;SDS011;11167;46.988;15.470;2022-07-29T06:15:47;3.30;;;3.00;;
22005;SDS011;11167;46.988;15.470;2022-07-29T06:17:49;3.35;;;3.05;;
22005;SDS011;11167;46.988;15.470;2022-07-29T06:19:50;3.50;;;3.20;;
22005;SDS011;11167;46.988;15.470;2022-07-29T06:21:51;3.30;;;3.00;;
22005;SDS011;11167;46.988;15.470;2022-07-29T06:23:52;3.33;;;3.02;;
22005;SDS011;11167;46.988;15.470;2022-07-29T06:25:53;3.98;;;3.58;;
22005;SDS011;11167;46.988;15.470;2022-07-29T06:27:54;4.58;;;3.17;;
22005;SDS011;11167;46.988;15.470;2022-07-29T06:29:56;3.37;;;3.08;;
22005;SDS011;11167;46.988;15.470;2022-07-29T06:31:58;4.87;;;3.00;;
22005;SDS011;11167;46.988;15.470;2022-07-29T06:33:59;4.45;;;3.15;;
22005;SDS011;11167;46.988;15.470;2022-07-29T06:36:00;3.15;;;2.80;;
22005;SDS011;11167;46.988;15.470;2022-07-29T06:38:03;3.35;;;3.05;;
22005;SDS011;11167;46.988;15.470;2022-07-29T06:40:04;4.10;;;3.47;;
22005;SDS011;11167;46.988;15.470;2022-07-29T06:42:24;3.85;;;3.35;;
22005;SDS011;11167;46.988;15.470;2022-07-29T06:44:25;4.67;;;3.10;;
22005;SDS011;11167;46.988;15.470;2022-07-29T06:46:26;3.45;;;3.15;;
22005;SDS011;11167;46.988;15.470;2022-07-29T06:48:28;3.92;;;3.47;;
22005;SDS011;11167;46.988;15.470;2022-07-29T06:50:29;4.22;;;3.30;;
22005;SDS011;11167;46.988;15.470;2022-07-29T06:52:30;3.92;;;3.50;;
22005;SDS011;11167;46.988;15.470;2022-07-29T06:54:31;3.52;;;3.22;;
22005;SDS011;11167;46.988;15.470;2022-07-29T06:56:33;3.95;;;3.47;;
22005;SDS011;11167;46.988;15.470;2022-07-29T06:58:37;3.20;;;2.90;;
22005;SDS011;11167;46.988;15.470;2022-07-29T07:00:39;3.60;;;3.30;;
22005;SDS011;11167;46.988;15.470;2022-07-29T07:02:40;3.50;;;3.20;;
22005;SDS011;11167;46.988;15.470;2022-07-29T07:04:41;3.70;;;3.40;;
22005;SDS011;11167;46.988;15.470;2022-07-29T07:06:42;3.40;;;3.10;;
22005;SDS011;11167;46.988;15.470;2022-07-29T07:08:43;3.80;;;3.30;;
22005;SDS011;11167;46.988;15.470;2022-07-29T07:10:44;3.80;;;3.40;;
22005;SDS011;11167;46.988;15.470;2022-07-29T07:12:46;3.75;;;3.10;;
22005;SDS011;11167;46.988;15.470;2022-07-29T07:14:47;3.50;;;3.20;;
22005;SDS011;11167;46.988;15.470;2022-07-29T07:16:48;3.62;;;3.33;;
22005;SDS011;11167;46.988;15.470;2022-07-29T07:18:49;3.50;;;3.20;;
22005;SDS011;11167;46.988;15.470;2022-07-29T07:20:50;3.47;;;3.17;;
22005;SDS011;11167;46.988;15.470;2022-07-29T07:22:52;3.42;;;3.12;;
22005;SDS011;11167;46.988;15.470;2022-07-29T07:24:53;4.33;;;3.50;;
22005;SDS011;11167;46.988;15.470;2022-07-29T07:26:54;4.15;;;3.30;;
22005;SDS011;11167;46.988;15.470;2022-07-29T07:28:55;3.52;;;3.20;;
22005;SDS011;11167;46.988;15.470;2022-07-29T07:30:56;3.25;;;2.95;;
22005;SDS011;11167;46.988;15.470;2022-07-29T07:32:57;4.05;;;3.75;;
22005;SDS011;11167;46.988;15.470;2022-07-29T07:35:00;3.35;;;3.05;;
22005;SDS011;11167;46.988;15.470;2022-07-29T07:37:01;3.42;;;3.12;;
22005;SDS011;11167;46.988;15.470;2022-07-29T07:39:02;5.08;;;3.00;;
22005;SDS011;11167;46.988;15.470;2022-07-29T07:41:04;3.85;;;3.45;;
22005;SDS011;11167;46.988;15.470;2022-07-29T07:43:05;3.87;;;3.45;;
22005;SDS011;11167;46.988;15.470;2022-07-29T07:45:07;3.87;;;3.52;;
22005;SDS011;11167;46.988;15.470;2022-07-29T07:47:12;3.60;;;3.30;;
22005;SDS011;11167;46.988;15.470;2022-07-29T07:49:13;3.67;;;3.25;;
22005;SDS011;11167;46.988;15.470;2022-07-29T07:51:14;4.80;;;3.85;;
22005;SDS011;11167;46.988;15.470;2022-07-29T07:53:15;3.65;;;3.35;;
22005;SDS011;11167;46.988;15.470;2022-07-29T07:55:17;3.70;;;3.35;;
22005;SDS011;11167;46.988;15.470;2022-07-29T07:57:18;3.40;;;3.10;;
22005;SDS011;11167;46.988;15.470;2022-07-29T07:59:19;5.00;;;3.20;;
22005;SDS011;11167;46.988;15.470;2022-07-29T08:01:20;3.55;;;3.25;;
22005;SDS011;11167;46.988;15.470;2022-07-29T08:03:23;4.25;;;3.55;;
22005;SDS011;11167;46.988;15.470;2022-07-29T08:05:24;3.60;;;3.30;;
22005;SDS011;11167;46.988;15.470;2022-07-29T08:07:25;3.70;;;3.40;;
22005;SDS011;11167;46.988;15.470;2022-07-29T08:09:27;3.30;;;3.00;;
22005;SDS011;11167;46.988;15.470;2022-07-29T08:11:29;3.92;;;3.10;;
22005;SDS011;11167;46.988;15.470;2022-07-29T08:13:32;3.30;;;2.92;;
22005;SDS011;11167;46.988;15.470;2022-07-29T08:15:33;3.60;;;3.30;;
22005;SDS011;11167;46.988;15.470;2022-07-29T08:17:35;3.52;;;3.02;;
22005;SDS011;11167;46.988;15.470;2022-07-29T08:19:37;3.80;;;3.40;;
22005;SDS011;11167;46.988;15.470;2022-07-29T08:21:39;4.30;;;3.42;;
22005;SDS011;11167;46.988;15.470;2022-07-29T08:23:40;3.27;;;2.98;;
22005;SDS011;11167;46.988;15.470;2022-07-29T08:25:53;3.87;;;2.95;;
22005;SDS011;11167;46.988;15.470;2022-07-29T08:27:54;3.30;;;3.08;;
22005;SDS011;11167;46.988;15.470;2022-07-29T08:29:55;3.83;;;3.33;;
22005;SDS011;11167;46.988;15.470;2022-07-29T08:31:57;3.55;;;3.08;;
22005;SDS011;11167;46.988;15.470;2022-07-29T08:33:58;3.25;;;2.95;;
22005;SDS011;11167;46.988;15.470;2022-07-29T08:36:00;4.15;;;3.30;;
22005;SDS011;11167;46.988;15.470;2022-07-29T08:38:01;3.35;;;3.05;;
22005;SDS011;11167;46.988;15.470;2022-07-29T08:40:04;3.27;;;2.98;;
22005;SDS011;11167;46.988;15.470;2022-07-29T08:42:06;4.10;;;3.70;;
22005;SDS011;11167;46.988;15.470;2022-07-29T08:44:08;5.25;;;3.70;;
22005;SDS011;11167;46.988;15.470;2022-07-29T08:46:09;3.58;;;3.27;;
22005;SDS011;11167;46.988;15.470;2022-07-29T08:48:11;4.25;;;3.22;;
22005;SDS011;11167;46.988;15.470;2022-07-29T08:50:13;3.00;;;2.72;;
22005;SDS011;11167;46.988;15.470;2022-07-29T08:52:15;3.25;;;2.95;;
22005;SDS011;11167;46.988;15.470;2022-07-29T08:54:17;3.62;;;3.27;;
22005;SDS011;11167;46.988;15.470;2022-07-29T08:56:19;4.58;;;3.22;;
22005;SDS011;11167;46.988;15.470;2022-07-29T08:58:21;4.05;;;3.22;;
22005;SDS011;11167;46.988;15.470;2022-07-29T09:00:24;3.07;;;2.77;;
22005;SDS011;11167;46.988;15.470;2022-07-29T09:02:27;3.30;;;3.00;;
22005;SDS011;11167;46.988;15.470;2022-07-29T09:04:32;3.10;;;2.87;;
22005;SDS011;11167;46.988;15.470;2022-07-29T09:06:37;3.33;;;3.02;;
22005;SDS011;11167;46.988;15.470;2022-07-29T09:08:40;3.05;;;2.85;;
22005;SDS011;11167;46.988;15.470;2022-07-29T09:10:43;3.60;;;3.20;;
22005;SDS011;11167;46.988;15.470;2022-07-29T09:12:45;3.80;;;3.42;;
22005;SDS011;11167;46.988;15.470;2022-07-29T09:14:46;3.25;;;2.95;;
22005;SDS011;11167;46.988;15.470;2022-07-29T09:16:49;3.52;;;3.22;;
22005;SDS011;11167;46.988;15.470;2022-07-29T09:18:55;2.90;;;2.70;;
22005;SDS011;11167;46.988;15.470;2022-07-29T09:20:56;3.35;;;3.05;;
22005;SDS011;11167;46.988;15.470;2022-07-29T09:23:16;3.42;;;3.12;;
22005;SDS011;11167;46.988;15.470;2022-07-29T09:25:36;2.92;;;2.70;;
22005;SDS011;11167;46.988;15.470;2022-07-29T09:30:07;3.30;;;3.00;;
22005;SDS011;11167;46.988;15.470;2022-07-29T09:32:13;3.00;;;2.80;;
22005;SDS011;11167;46.988;15.470;2022-07-29T09:34:15;3.22;;;2.92;;
22005;SDS011;11167;46.988;15.470;2022-07-29T09:36:24;3.35;;;3.05;;
22005;SDS011;11167;46.988;15.470;2022-07-29T09:38:25;2.85;;;2.65;;
22005;SDS011;11167;46.988;15.470;2022-07-29T09:40:27;3.30;;;3.00;;
22005;SDS011;11167;46.988;15.470;2022-07-29T09:42:29;3.00;;;2.70;;
22005;SDS011;11167;46.988;15.470;2022-07-29T09:44:42;3.02;;;2.70;;
22005;SDS011;11167;46.988;15.470;2022-07-29T09:47:00;3.70;;;3.12;;
22005;SDS011;11167;46.988;15.470;2022-07-29T09:49:09;3.30;;;3.00;;
22005;SDS011;11167;46.988;15.470;2022-07-29T09:51:18;3.35;;;3.05;;
22005;SDS011;11167;46.988;15.470;2022-07-29T09:55:49;3.50;;;3.20;;
22005;SDS011;11167;46.988;15.470;2022-07-29T09:57:52;2.98;;;2.72;;
22005;SDS011;11167;46.988;15.470;2022-07-29T10:02:11;3.27;;;3.08;;
22005;SDS011;11167;46.988;15.470;2022-07-29T10:04:13;3.10;;;2.80;;
22005;SDS011;11167;46.988;15.470;2022-07-29T10:06:15;2.83;;;2.62;;
22005;SDS011;11167;46.988;15.470;2022-07-29T10:08:19;3.15;;;2.70;;
22005;SDS011;11167;46.988;15.470;2022-07-29T10:10:22;3.58;;;2.87;;
22005;SDS011;11167;46.988;15.470;2022-07-29T10:12:24;3.05;;;2.75;;
22005;SDS011;11167;46.988;15.470;2022-07-29T10:14:26;3.20;;;2.90;;
22005;SDS011;11167;46.988;15.470;2022-07-29T10:16:27;2.70;;;2.50;;
22005;SDS011;11167;46.988;15.470;2022-07-29T10:18:31;3.77;;;2.83;;
22005;SDS011;11167;46.988;15.470;2022-07-29T10:20:33;2.98;;;2.65;;
22005;SDS011;11167;46.988;15.470;2022-07-29T10:22:36;2.60;;;2.40;;
22005;SDS011;11167;46.988;15.470;2022-07-29T10:24:38;2.72;;;2.52;;
22005;SDS011;11167;46.988;15.470;2022-07-29T10:26:39;2.80;;;2.60;;
22005;SDS011;11167;46.988;15.470;2022-07-29T10:28:41;2.85;;;2.60;;
22005;SDS011;11167;46.988;15.470;2022-07-29T10:30:42;2.60;;;2.40;;
22005;SDS011;11167;46.988;15.470;2022-07-29T10:32:58;2.98;;;2.67;;
22005;SDS011;11167;46.988;15.470;2022-07-29T10:35:34;2.77;;;2.58;;
22005;SDS011;11167;46.988;15.470;2022-07-29T10:40:13;2.80;;;2.60;;
22005;SDS011;11167;46.988;15.470;2022-07-29T10:42:46;3.00;;;2.80;;
22005;SDS011;11167;46.988;15.470;2022-07-29T10:44:47;3.20;;;2.90;;
22005;SDS011;11167;46.988;15.470;2022-07-29T10:46:49;3.22;;;2.92;;
22005;SDS011;11167;46.988;15.470;2022-07-29T10:49:10;2.92;;;2.67;;
22005;SDS011;11167;46.988;15.470;2022-07-29T10:51:15;2.90;;;2.70;;
22005;SDS011;11167;46.988;15.470;2022-07-29T10:53:16;3.33;;;2.52;;
22005;SDS011;11167;46.988;15.470;2022-07-29T10:55:51;2.70;;;2.50;;
22005;SDS011;11167;46.988;15.470;2022-07-29T10:57:36;3.08;;;2.52;;
22005;SDS011;11167;46.988;15.470;2022-07-29T10:59:40;3.30;;;3.00;;
22005;SDS011;11167;46.988;15.470;2022-07-29T11:01:42;2.85;;;2.65;;
22005;SDS011;11167;46.988;15.470;2022-07-29T11:03:44;2.90;;;2.70;;
22005;SDS011;11167;46.988;15.470;2022-07-29T11:05:54;2.75;;;2.55;;
22005;SDS011;11167;46.988;15.470;2022-07-29T11:14:57;3.17;;;2.87;;
22005;SDS011;11167;46.988;15.470;2022-07-29T11:17:02;2.77;;;2.58;;
22005;SDS011;11167;46.988;15.470;2022-07-29T11:21:35;2.95;;;2.75;;
22005;SDS011;11167;46.988;15.470;2022-07-29T11:23:39;2.98;;;2.77;;
22005;SDS011;11167;46.988;15.470;2022-07-29T11:25:42;3.37;;;2.93;;
22005;SDS011;11167;46.988;15.470;2022-07-29T11:27:44;2.83;;;2.62;;
22005;SDS011;11167;46.988;15.470;2022-07-29T11:29:52;3.62;;;2.67;;
22005;SDS011;11167;46.988;15.470;2022-07-29T11:31:56;3.10;;;2.67;;
22005;SDS011;11167;46.988;15.470;2022-07-29T11:36:24;3.12;;;2.83;;
22005;SDS011;11167;46.988;15.470;2022-07-29T11:38:26;3.10;;;2.80;;
22005;SDS011;11167;46.988;15.470;2022-07-29T11:40:28;2.95;;;2.75;;
22005;SDS011;11167;46.988;15.470;2022-07-29T11:47:13;4.28;;;2.95;;
22005;SDS011;11167;46.988;15.470;2022-07-29T11:49:19;3.30;;;3.00;;
22005;SDS011;11167;46.988;15.470;2022-07-29T11:51:24;2.83;;;2.60;;
22005;SDS011;11167;46.988;15.470;2022-07-29T11:53:25;2.83;;;2.60;;
22005;SDS011;11167;46.988;15.470;2022-07-29T11:55:26;3.08;;;2.58;;
22005;SDS011;11167;46.988;15.470;2022-07-29T11:57:28;2.77;;;2.58;;
22005;SDS011;11167;46.988;15.470;2022-07-29T11:59:30;2.85;;;2.50;;
22005;SDS011;11167;46.988;15.470;2022-07-29T12:01:32;3.05;;;2.58;;
22005;SDS011;11167;46.988;15.470;2022-07-29T12:03:33;2.80;;;2.60;;
22005;SDS011;11167;46.988;15.470;2022-07-29T12:05:36;3.05;;;2.77;;
22005;SDS011;11167;46.988;15.470;2022-07-29T12:07:40;3.00;;;2.70;;
22005;SDS011;11167;46.988;15.470;2022-07-29T12:09:50;2.77;;;2.40;;
22005;SDS011;11167;46.988;15.470;2022-07-29T12:11:58;2.80;;;2.60;;
22005;SDS011;11167;46.988;15.470;2022-07-29T12:14:00;2.80;;;2.60;;
22005;SDS011;11167;46.988;15.470;2022-07-29T12:16:03;2.92;;;2.72;;
22005;SDS011;11167;46.988;15.470;2022-07-29T12:18:11;2.90;;;2.70;;
22005;SDS011;11167;46.988;15.470;2022-07-29T12:20:24;3.08;;;2.77;;
22005;SDS011;11167;46.988;15.470;2022-07-29T12:22:28;2.95;;;2.75;;
22005;SDS011;11167;46.988;15.470;2022-07-29T12:24:42;3.08;;;2.77;;
22005;SDS011;11167;46.988;15.470;2022-07-29T12:28:55;3.05;;;2.70;;
22005;SDS011;11167;46.988;15.470;2022-07-29T12:30:57;3.08;;;2.70;;
22005;SDS011;11167;46.988;15.470;2022-07-29T12:32:58;3.10;;;2.80;;
22005;SDS011;11167;46.988;15.470;2022-07-29T12:35:01;2.50;;;2.30;;
22005;SDS011;11167;46.988;15.470;2022-07-29T12:37:04;3.08;;;2.77;;
22005;SDS011;11167;46.988;15.470;2022-07-29T12:39:08;2.80;;;2.60;;
22005;SDS011;11167;46.988;15.470;2022-07-29T12:41:10;2.37;;;2.17;;
22005;SDS011;11167;46.988;15.470;2022-07-29T12:43:15;2.65;;;2.45;;
22005;SDS011;11167;46.988;15.470;2022-07-29T12:45:28;2.98;;;2.67;;
22005;SDS011;11167;46.988;15.470;2022-07-29T12:47:31;2.80;;;2.60;;
22005;SDS011;11167;46.988;15.470;2022-07-29T12:49:33;2.77;;;2.37;;
22005;SDS011;11167;46.988;15.470;2022-07-29T12:51:35;2.72;;;2.52;;
22005;SDS011;11167;46.988;15.470;2022-07-29T12:53:38;2.65;;;2.45;;
22005;SDS011;11167;46.988;15.470;2022-07-29T12:55:40;2.92;;;2.62;;
22005;SDS011;11167;46.988;15.470;2022-07-29T12:57:49;4.08;;;3.20;;